createdAt,value
2019-02-28T00:00:56.015Z,99.90
2019-02-28T00:03:27.384Z,99.90
2019-02-28T00:05:58.618Z,99.90
2019-02-28T00:08:29.823Z,99.90
2019-02-28T00:11:02.113Z,99.90
2019-02-28T00:13:33.871Z,99.90
2019-02-28T00:16:05.162Z,99.90
2019-02-28T00:18:36.631Z,99.90
2019-02-28T00:21:07.929Z,99.90
2019-02-28T00:23:39.098Z,99.90
2019-02-28T00:26:11.658Z,99.90
2019-02-28T00:28:44.186Z,99.90
2019-02-28T00:31:15.499Z,99.90
2019-02-28T00:33:46.793Z,99.90
2019-02-28T00:36:19.153Z,99.90
2019-02-28T00:38:50.984Z,99.90
2019-02-28T00:41:22.150Z,99.90
2019-02-28T00:43:53.389Z,99.90
2019-02-28T00:46:24.568Z,99.90
2019-02-28T00:48:55.768Z,99.90
2019-02-28T00:51:29.684Z,99.90
2019-02-28T00:54:00.865Z,99.90
2019-02-28T00:56:32.421Z,99.90
2019-02-28T00:59:03.638Z,99.90
2019-02-28T01:01:34.884Z,99.90
2019-02-28T01:04:09.026Z,99.90
2019-02-28T01:06:41.808Z,99.90
2019-02-28T01:09:13.086Z,99.90
2019-02-28T01:11:45.550Z,99.90
2019-02-28T01:14:17.098Z,99.90
2019-02-28T01:16:50.150Z,99.90
2019-02-28T01:19:21.094Z,99.90
2019-02-28T01:21:55.416Z,99.90
2019-02-28T01:24:25.027Z,99.90
2019-02-28T01:26:56.219Z,99.90
2019-02-28T01:29:27.333Z,99.90
2019-02-28T01:31:58.569Z,99.90
2019-02-28T01:34:32.192Z,99.90
2019-02-28T01:37:02.522Z,99.90
2019-02-28T01:39:33.729Z,99.90
2019-02-28T01:42:04.974Z,99.90
2019-02-28T01:44:36.515Z,99.90
2019-02-28T01:47:07.733Z,99.90
2019-02-28T01:49:38.931Z,99.90
2019-02-28T01:52:10.807Z,99.90
2019-02-28T01:54:42.215Z,99.90
2019-02-28T01:57:13.410Z,99.90
2019-02-28T01:59:45.662Z,99.90
2019-02-28T02:02:16.788Z,99.90
2019-02-28T02:04:48.289Z,99.90
2019-02-28T02:07:20.960Z,99.90
2019-02-28T02:09:52.522Z,99.90
2019-02-28T02:12:23.700Z,99.90
2019-02-28T02:14:54.897Z,99.90
2019-02-28T02:17:26.092Z,99.90
2019-02-28T02:19:57.363Z,99.90
2019-02-28T02:22:28.591Z,99.90
2019-02-28T02:25:03.052Z,99.90
2019-02-28T02:27:32.544Z,99.90
2019-02-28T02:30:03.720Z,99.90
2019-02-28T02:32:38.667Z,99.90
2019-02-28T02:35:08.490Z,99.90
2019-02-28T02:37:39.764Z,99.90
2019-02-28T02:40:11.477Z,99.90
2019-02-28T02:42:47.535Z,99.90
2019-02-28T02:45:16.521Z,99.90
2019-02-28T02:47:47.715Z,99.90
2019-02-28T02:50:18.904Z,99.90
2019-02-28T02:52:50.077Z,99.90
2019-02-28T02:55:27.727Z,99.90
2019-02-28T02:57:54.216Z,99.90
2019-02-28T03:00:25.384Z,99.90
2019-02-28T03:02:56.593Z,99.90
2019-02-28T03:05:34.987Z,99.90
2019-02-28T03:08:01.126Z,99.90
2019-02-28T03:10:32.424Z,99.90
2019-02-28T03:13:04.891Z,99.90
2019-02-28T03:15:36.411Z,99.90
2019-02-28T03:18:07.559Z,99.90
2019-02-28T03:20:41.332Z,99.90
2019-02-28T03:23:11.544Z,99.90
2019-02-28T03:25:42.684Z,99.90
2019-02-28T03:28:14.097Z,99.90
2019-02-28T03:30:45.454Z,99.90
2019-02-28T03:33:27.390Z,99.90
2019-02-28T03:35:49.437Z,99.90
2019-02-28T03:38:20.585Z,99.90
2019-02-28T03:40:51.803Z,99.90
2019-02-28T03:43:23.201Z,99.90
2019-02-28T03:45:54.357Z,99.90
2019-02-28T03:48:25.501Z,99.90
2019-02-28T03:50:56.795Z,99.90
2019-02-28T03:53:27.994Z,99.90
2019-02-28T03:55:59.262Z,99.90
2019-02-28T03:58:30.556Z,99.90
2019-02-28T04:01:08.965Z,99.90
2019-02-28T04:03:34.789Z,99.90
2019-02-28T04:06:06.138Z,99.90
2019-02-28T04:08:37.322Z,99.90
2019-02-28T04:11:08.501Z,99.90
2019-02-28T04:13:39.666Z,99.90
2019-02-28T04:16:10.931Z,99.90
2019-02-28T04:18:45.890Z,99.90
2019-02-28T04:21:14.848Z,99.90
2019-02-28T04:23:46.033Z,99.90
2019-02-28T04:26:17.194Z,99.90
2019-02-28T04:28:53.522Z,99.90
2019-02-28T04:31:21.225Z,99.90
2019-02-28T04:33:53.498Z,99.90
2019-02-28T04:36:24.583Z,99.90
2019-02-28T04:38:55.709Z,99.90
2019-02-28T04:41:26.899Z,99.90
2019-02-28T04:43:58.135Z,99.90
2019-02-28T04:46:31.794Z,99.90
2019-02-28T04:49:02.178Z,99.90
2019-02-28T04:51:33.315Z,99.90
2019-02-28T04:54:04.437Z,99.90
2019-02-28T04:56:35.631Z,99.90
2019-02-28T04:59:06.755Z,99.90
2019-02-28T05:01:37.982Z,99.90
2019-02-28T05:04:09.187Z,99.90
2019-02-28T05:06:40.418Z,99.90
2019-02-28T05:09:14.343Z,99.90
2019-02-28T05:11:44.442Z,99.90
2019-02-28T05:14:15.620Z,99.90
2019-02-28T05:16:47.472Z,99.90
2019-02-28T05:19:19.552Z,99.90
2019-02-28T05:21:53.498Z,99.90
2019-02-28T05:24:23.400Z,99.90
2019-02-28T05:26:57.340Z,99.90
2019-02-28T05:29:27.404Z,99.90
2019-02-28T05:32:01.076Z,99.90
2019-02-28T05:34:31.254Z,99.90
2019-02-28T05:37:02.443Z,99.90
2019-02-28T05:39:33.675Z,99.90
2019-02-28T05:42:04.814Z,99.90
2019-02-28T05:44:37.382Z,99.90
2019-02-28T05:47:10.423Z,99.90
2019-02-28T05:49:42.068Z,99.90
2019-02-28T05:52:13.214Z,99.90
2019-02-28T05:54:47.221Z,99.90
2019-02-28T05:57:18.203Z,99.90
2019-02-28T05:59:49.431Z,99.90
2019-02-28T06:02:22.413Z,99.90
2019-02-28T06:04:53.400Z,99.90
2019-02-28T06:07:25.984Z,99.90
2019-02-28T06:09:57.303Z,99.90
2019-02-28T06:12:28.376Z,99.90
2019-02-28T06:15:03.112Z,99.90
2019-02-28T06:17:33.391Z,99.90
2019-02-28T06:20:05.436Z,99.90
2019-02-28T06:22:36.610Z,99.90
2019-02-28T06:25:08.055Z,99.90
2019-02-28T06:27:41.947Z,99.90
2019-02-28T06:30:12.769Z,99.90
2019-02-28T06:32:44.898Z,99.90
2019-02-28T06:35:20.263Z,99.90
2019-02-28T06:37:49.642Z,99.90
2019-02-28T06:40:20.898Z,99.90
2019-02-28T06:42:52.097Z,99.90
2019-02-28T06:45:23.204Z,99.90
2019-02-28T06:47:54.357Z,99.90
2019-02-28T06:50:25.540Z,99.90
2019-02-28T06:52:59.344Z,99.90
2019-02-28T06:55:29.552Z,99.90
2019-02-28T06:58:00.754Z,99.90
2019-02-28T07:00:31.936Z,99.90
2019-02-28T07:03:04.385Z,99.90
2019-02-28T07:05:36.581Z,99.90
2019-02-28T07:08:07.954Z,99.90
2019-02-28T07:10:41.417Z,99.90
2019-02-28T07:13:11.969Z,99.90
2019-02-28T07:15:43.029Z,99.90
2019-02-28T07:18:14.274Z,99.90
2019-02-28T07:20:47.156Z,99.90
2019-02-28T07:23:18.152Z,99.90
2019-02-28T07:25:49.291Z,99.90
2019-02-28T07:28:20.458Z,99.90
2019-02-28T07:30:51.575Z,99.90
2019-02-28T07:33:22.739Z,99.90
2019-02-28T07:35:54.019Z,99.90
2019-02-28T07:38:25.580Z,99.90
2019-02-28T07:40:58.038Z,99.90
2019-02-28T07:43:29.245Z,99.90
2019-02-28T07:46:00.389Z,99.90
2019-02-28T07:48:31.600Z,99.90
2019-02-28T07:51:02.768Z,99.90
2019-02-28T07:53:33.888Z,99.90
2019-02-28T07:56:07.157Z,99.90
2019-02-28T07:58:37.892Z,99.90
2019-02-28T08:01:09.025Z,99.90
2019-02-28T08:03:43.405Z,99.90
2019-02-28T08:06:13.039Z,99.90
2019-02-28T08:08:45.272Z,99.50
2019-02-28T08:11:19.880Z,99.90
2019-02-28T08:13:49.406Z,99.90
2019-02-28T08:16:20.589Z,99.90
2019-02-28T08:18:52.454Z,99.00
2019-02-28T08:21:23.963Z,98.60
2019-02-28T08:23:55.216Z,99.00
2019-02-28T08:26:26.426Z,97.30
2019-02-28T08:28:57.666Z,97.80
2019-02-28T08:31:31.982Z,98.40
2019-02-28T08:34:01.814Z,97.60
2019-02-28T08:36:33.026Z,98.60
2019-02-28T08:39:08.824Z,99.20
2019-02-28T08:41:39.525Z,97.60
2019-02-28T08:44:10.738Z,97.70
2019-02-28T08:46:43.526Z,97.20
2019-02-28T08:49:14.726Z,95.60
2019-02-28T08:51:45.953Z,95.80
2019-02-28T08:54:17.140Z,96.00
2019-02-28T08:56:49.757Z,95.90
2019-02-28T08:59:22.706Z,95.60
2019-02-28T09:01:54.255Z,95.40
2019-02-28T09:04:25.486Z,94.50
2019-02-28T09:06:56.719Z,94.60
2019-02-28T09:09:27.931Z,94.30
2019-02-28T09:11:59.139Z,94.50
2019-02-28T09:14:30.403Z,93.70
2019-02-28T09:17:01.707Z,93.80
2019-02-28T09:19:36.040Z,92.70
2019-02-28T09:22:05.707Z,95.30
2019-02-28T09:24:36.937Z,93.30
2019-02-28T09:27:08.217Z,93.50
2019-02-28T09:29:39.652Z,93.00
2019-02-28T09:32:13.444Z,94.30
2019-02-28T09:34:43.840Z,93.80
2019-02-28T09:37:15.082Z,91.90
2019-02-28T09:39:46.307Z,91.50
2019-02-28T09:42:17.507Z,91.10
2019-02-28T09:44:49.716Z,88.80
2019-02-28T09:47:23.365Z,90.00
2019-02-28T09:49:53.644Z,90.90
2019-02-28T09:52:24.875Z,87.80
2019-02-28T09:54:56.271Z,88.30
2019-02-28T09:57:30.234Z,87.60
2019-02-28T10:00:01.566Z,85.70
2019-02-28T10:02:34.180Z,88.60
2019-02-28T10:05:07.571Z,86.10
2019-02-28T10:07:38.834Z,81.50
2019-02-28T10:10:13.933Z,79.30
2019-02-28T10:12:45.233Z,84.80
2019-02-28T10:15:20.376Z,81.90
2019-02-28T10:17:51.599Z,78.00
2019-02-28T10:20:27.194Z,78.60
2019-02-28T10:22:57.636Z,79.60
2019-02-28T10:25:29.873Z,80.30
2019-02-28T10:28:02.645Z,78.40
2019-02-28T10:30:34.152Z,81.30
2019-02-28T10:33:05.442Z,77.10
2019-02-28T10:35:37.607Z,75.50
2019-02-28T10:38:09.031Z,75.70
2019-02-28T10:40:40.239Z,75.50
2019-02-28T10:43:12.212Z,73.60
2019-02-28T10:45:46.001Z,71.10
2019-02-28T10:48:17.416Z,72.60
2019-02-28T10:50:48.742Z,71.10
2019-02-28T10:53:19.939Z,71.90
2019-02-28T10:55:51.280Z,70.90
2019-02-28T10:58:22.471Z,68.00
2019-02-28T11:00:53.680Z,70.80
2019-02-28T11:03:24.831Z,64.40
2019-02-28T11:05:56.359Z,65.70
2019-02-28T11:08:27.574Z,66.50
2019-02-28T11:10:59.420Z,69.30
2019-02-28T11:13:32.188Z,69.00
2019-02-28T11:16:03.697Z,69.20
2019-02-28T11:18:36.440Z,68.10
2019-02-28T11:21:08.049Z,64.90
2019-02-28T11:23:39.669Z,65.00
2019-02-28T11:26:10.964Z,66.10
2019-02-28T11:28:42.197Z,64.10
2019-02-28T11:31:16.286Z,64.80
2019-02-28T11:33:46.519Z,63.40
2019-02-28T11:36:17.685Z,64.20
2019-02-28T11:38:48.905Z,63.20
2019-02-28T11:41:20.197Z,62.30
2019-02-28T11:43:51.521Z,63.90
2019-02-28T11:46:22.742Z,63.80
2019-02-28T11:48:55.093Z,62.70
2019-02-28T11:51:27.331Z,60.90
2019-02-28T11:53:58.598Z,60.30
2019-02-28T11:56:29.787Z,60.90
2019-02-28T11:59:01.097Z,62.20
2019-02-28T12:01:32.516Z,60.60
2019-02-28T12:04:03.696Z,61.80
2019-02-28T12:06:35.464Z,61.10
2019-02-28T12:09:08.161Z,63.10
2019-02-28T12:11:39.549Z,60.60
2019-02-28T12:14:10.896Z,60.80
2019-02-28T12:16:42.127Z,61.10
2019-02-28T12:19:15.882Z,60.70
2019-02-28T12:21:46.205Z,59.30
2019-02-28T12:24:17.425Z,62.00
2019-02-28T12:26:49.416Z,59.90
2019-02-28T12:29:21.533Z,60.70
2019-02-28T12:31:52.737Z,61.20
2019-02-28T12:34:24.027Z,60.00
2019-02-28T12:36:55.130Z,59.50
2019-02-28T12:39:26.319Z,59.00
2019-02-28T12:41:59.523Z,59.60
2019-02-28T12:44:30.368Z,60.30
2019-02-28T12:47:03.352Z,59.90
2019-02-28T12:49:34.727Z,59.70
2019-02-28T12:52:05.911Z,59.00
2019-02-28T12:54:37.146Z,61.50
2019-02-28T12:57:08.347Z,60.70
2019-02-28T12:59:41.792Z,61.40
2019-02-28T13:02:12.752Z,60.40
2019-02-28T13:04:43.959Z,61.00
2019-02-28T13:07:15.141Z,60.70
2019-02-28T13:09:48.258Z,60.50
2019-02-28T13:12:19.129Z,59.40
2019-02-28T13:14:50.326Z,60.80
2019-02-28T13:17:21.506Z,60.30
2019-02-28T13:19:53.157Z,60.80
2019-02-28T13:22:25.591Z,60.30
2019-02-28T13:24:56.801Z,61.20
2019-02-28T13:27:27.991Z,59.70
2019-02-28T13:29:59.105Z,61.20
2019-02-28T13:32:33.768Z,60.50
2019-02-28T13:35:07.208Z,63.10
2019-02-28T13:37:37.511Z,61.70
2019-02-28T13:40:09.535Z,61.40
2019-02-28T13:42:42.317Z,61.30
2019-02-28T13:45:22.232Z,61.20
2019-02-28T13:47:48.175Z,61.50
2019-02-28T13:50:22.076Z,61.20
2019-02-28T13:52:54.211Z,61.70
2019-02-28T13:55:25.598Z,60.90
2019-02-28T13:57:56.835Z,60.10
2019-02-28T14:00:29.574Z,61.00
2019-02-28T14:03:09.143Z,61.80
2019-02-28T14:05:40.816Z,60.80
2019-02-28T14:08:11.297Z,62.20
2019-02-28T14:10:41.589Z,62.10
2019-02-28T14:13:12.890Z,61.80
2019-02-28T14:15:47.885Z,62.00
2019-02-28T14:18:17.314Z,61.60
2019-02-28T14:20:49.202Z,62.00
2019-02-28T14:23:21.526Z,61.50
2019-02-28T14:25:53.013Z,64.30
2019-02-28T14:28:24.347Z,62.30
2019-02-28T14:30:57.611Z,62.70
2019-02-28T14:33:28.488Z,62.30
2019-02-28T14:35:59.762Z,61.20
2019-02-28T14:38:32.792Z,62.30
2019-02-28T14:41:03.906Z,62.00
2019-02-28T14:43:35.136Z,63.20
2019-02-28T14:46:06.565Z,64.00
2019-02-28T14:48:39.900Z,64.10
2019-02-28T14:51:10.749Z,65.90
2019-02-28T14:53:42.020Z,65.50
2019-02-28T14:56:13.320Z,64.00
2019-02-28T14:58:44.764Z,66.90
2019-02-28T15:01:17.752Z,65.10
2019-02-28T15:03:48.922Z,66.40
2019-02-28T15:06:20.099Z,66.40
2019-02-28T15:08:51.961Z,65.90
2019-02-28T15:11:23.529Z,66.50
2019-02-28T15:13:54.754Z,68.80
2019-02-28T15:16:26.647Z,69.20
2019-02-28T15:18:59.265Z,70.20
2019-02-28T15:21:30.595Z,74.20
2019-02-28T15:24:01.812Z,77.80
2019-02-28T15:26:33.229Z,77.80
2019-02-28T15:29:04.443Z,78.00
2019-02-28T15:31:35.676Z,81.50
2019-02-28T15:34:06.916Z,85.30
2019-02-28T15:36:39.280Z,87.90
2019-02-28T15:39:10.525Z,90.00
2019-02-28T15:41:41.893Z,90.70
2019-02-28T15:44:13.110Z,90.60
2019-02-28T15:46:47.372Z,92.10
2019-02-28T15:49:17.612Z,92.60
2019-02-28T15:51:48.985Z,93.30
2019-02-28T15:54:21.715Z,94.40
2019-02-28T15:56:55.435Z,94.90
2019-02-28T15:59:25.989Z,96.10
2019-02-28T16:01:57.234Z,96.30
2019-02-28T16:04:28.673Z,96.90
2019-02-28T16:06:59.848Z,96.70
2019-02-28T16:09:37.989Z,97.40
2019-02-28T16:12:46.611Z,97.50
2019-02-28T16:15:39.377Z,97.90
2019-02-28T16:18:18.512Z,98.60
2019-02-28T16:20:53.534Z,98.70
2019-02-28T16:23:31.102Z,99.30
2019-02-28T16:26:05.325Z,99.70
2019-02-28T16:28:44.135Z,99.90
2019-02-28T16:31:21.371Z,99.90
2019-02-28T16:34:08.018Z,99.90
2019-02-28T16:36:32.105Z,99.90
2019-02-28T16:39:04.740Z,99.90
2019-02-28T16:41:37.649Z,99.90
2019-02-28T16:44:09.025Z,99.90
2019-02-28T16:46:40.278Z,99.90
2019-02-28T16:49:11.521Z,99.90
2019-02-28T16:51:42.750Z,99.90
2019-02-28T16:54:15.550Z,99.90
2019-02-28T16:56:46.813Z,99.90
2019-02-28T16:59:18.025Z,99.90
2019-02-28T17:01:51.321Z,99.90
2019-02-28T17:04:22.110Z,99.90
2019-02-28T17:06:55.498Z,99.90
2019-02-28T17:09:36.627Z,99.90
2019-02-28T17:12:18.265Z,99.90
2019-02-28T17:14:49.603Z,99.90
2019-02-28T17:17:46.949Z,99.90
2019-02-28T17:20:18.851Z,99.90
2019-02-28T17:22:50.092Z,99.90
2019-02-28T17:25:21.686Z,99.90
2019-02-28T17:28:15.268Z,99.90
2019-02-28T17:31:19.821Z,99.90
2019-02-28T17:33:51.791Z,99.90
2019-02-28T17:36:23.245Z,99.90
2019-02-28T17:38:54.778Z,99.90
2019-02-28T17:41:26.035Z,99.90
2019-02-28T17:44:41.026Z,99.90
2019-02-28T17:47:37.560Z,99.90
2019-02-28T17:51:00.331Z,99.90
2019-02-28T17:54:17.223Z,99.90
2019-02-28T17:57:06.838Z,99.90
2019-02-28T18:00:30.014Z,99.90
2019-02-28T18:03:53.396Z,99.90
2019-02-28T18:06:50.129Z,99.90
2019-02-28T18:09:34.328Z,99.90
2019-02-28T18:12:57.399Z,99.90
2019-02-28T18:15:50.790Z,99.90
2019-02-28T18:18:55.698Z,99.90
2019-02-28T18:21:54.771Z,99.90
2019-02-28T18:25:37.338Z,99.90
2019-02-28T18:28:49.088Z,99.90
2019-02-28T18:31:22.066Z,99.90
2019-02-28T18:34:05.810Z,99.90
2019-02-28T18:36:40.258Z,99.90
2019-02-28T18:39:12.317Z,99.90
2019-02-28T18:41:44.117Z,99.90
2019-02-28T18:44:15.486Z,99.90
2019-02-28T18:46:48.784Z,99.90
2019-02-28T18:49:20.524Z,99.90
2019-02-28T18:51:56.143Z,99.90
2019-02-28T18:54:30.169Z,99.90
2019-02-28T18:57:01.992Z,99.90
2019-02-28T18:59:33.701Z,99.90
2019-02-28T19:02:05.794Z,99.90
2019-02-28T19:04:37.647Z,99.90
2019-02-28T19:07:08.918Z,99.90
2019-02-28T19:09:40.389Z,99.90
2019-02-28T19:12:12.884Z,99.90
2019-02-28T19:14:44.286Z,99.90
2019-02-28T19:17:15.621Z,99.90
2019-02-28T19:19:46.849Z,99.90
2019-02-28T19:22:20.669Z,99.90
2019-02-28T19:24:52.401Z,99.90
2019-02-28T19:27:31.735Z,99.90
2019-02-28T19:30:02.982Z,99.90
2019-02-28T19:32:35.576Z,99.90
2019-02-28T19:35:06.879Z,99.90
2019-02-28T19:37:38.168Z,99.90
2019-02-28T19:40:10.185Z,99.90
2019-02-28T19:42:41.563Z,99.90
2019-02-28T19:45:13.896Z,99.90
2019-02-28T19:47:45.183Z,99.90
2019-02-28T19:50:16.307Z,99.90
2019-02-28T19:52:47.597Z,99.90
2019-02-28T19:55:18.886Z,99.90
2019-02-28T19:57:52.790Z,99.90
2019-02-28T20:00:24.047Z,99.90
2019-02-28T20:02:55.279Z,99.90
2019-02-28T20:05:26.602Z,99.90
2019-02-28T20:07:58.335Z,99.90
2019-02-28T20:10:29.785Z,99.90
2019-02-28T20:13:01.225Z,99.90
2019-02-28T20:15:34.341Z,99.90
2019-02-28T20:18:05.554Z,99.90
2019-02-28T20:20:37.245Z,99.90
2019-02-28T20:23:08.703Z,99.90
2019-02-28T20:25:39.895Z,99.90
2019-02-28T20:28:11.091Z,99.90
2019-02-28T20:30:42.417Z,99.90
2019-02-28T20:33:13.668Z,99.90
2019-02-28T20:35:44.985Z,99.90
2019-02-28T20:38:17.539Z,99.90
2019-02-28T20:40:49.145Z,99.90
2019-02-28T20:43:20.964Z,99.90
2019-02-28T20:45:52.730Z,99.90
2019-02-28T20:48:24.067Z,99.90
2019-02-28T20:50:55.935Z,99.90
2019-02-28T20:53:27.113Z,99.90
2019-02-28T20:55:58.312Z,99.90
2019-02-28T20:58:29.699Z,99.90
2019-02-28T21:01:01.256Z,99.90
2019-02-28T21:03:32.508Z,99.90
2019-02-28T21:06:03.886Z,99.90
2019-02-28T21:08:35.266Z,99.90
2019-02-28T21:11:07.426Z,99.90
2019-02-28T21:13:38.788Z,99.90
2019-02-28T21:16:10.536Z,99.90
2019-02-28T21:18:42.033Z,99.90
2019-02-28T21:21:13.391Z,99.90
2019-02-28T21:23:44.839Z,99.90
2019-02-28T21:26:16.055Z,99.90
2019-02-28T21:28:47.284Z,99.90
2019-02-28T21:31:18.497Z,99.90
2019-02-28T21:33:49.801Z,99.90
2019-02-28T21:36:21.087Z,99.90
2019-02-28T21:38:52.370Z,99.90
2019-02-28T21:41:23.545Z,99.90
2019-02-28T21:43:54.878Z,99.90
2019-02-28T21:46:26.096Z,99.90
2019-02-28T21:48:57.335Z,99.90
2019-02-28T21:51:28.584Z,99.90
2019-02-28T21:53:59.784Z,99.90
2019-02-28T21:56:31.033Z,99.90
2019-02-28T21:59:02.236Z,99.90
2019-02-28T22:01:33.448Z,99.90
2019-02-28T22:04:04.641Z,99.90
2019-02-28T22:06:35.909Z,99.90
2019-02-28T22:09:08.359Z,99.90
2019-02-28T22:11:40.652Z,99.90
2019-02-28T22:14:12.042Z,99.90
2019-02-28T22:16:43.945Z,99.90
2019-02-28T22:19:15.361Z,99.90
2019-02-28T22:21:46.509Z,99.90
2019-02-28T22:24:18.242Z,99.90
2019-02-28T22:26:49.459Z,99.90
2019-02-28T22:29:20.651Z,99.90
2019-02-28T22:32:29.046Z,99.90
2019-02-28T22:35:08.935Z,99.90
2019-02-28T22:37:40.305Z,99.90
2019-02-28T22:40:11.634Z,99.90
2019-02-28T22:42:43.384Z,99.90
2019-02-28T22:45:15.725Z,99.90
2019-02-28T22:47:47.363Z,99.90
2019-02-28T22:50:18.948Z,99.90
2019-02-28T22:52:50.617Z,99.90
2019-02-28T22:55:22.223Z,99.90
2019-02-28T22:57:53.507Z,99.90
2019-02-28T23:00:43.581Z,99.90
2019-02-28T23:03:15.077Z,99.90
